createdAt,value
2023-04-18T00:01:57.524Z,101489.35
2023-04-18T00:07:01.244Z,101484.63
2023-04-18T00:12:05.274Z,101487.38
2023-04-18T00:17:09.137Z,101482.40
2023-04-18T00:22:13.534Z,101476.20
2023-04-18T00:27:18.794Z,101475.27
2023-04-18T00:32:21.914Z,101474.94
2023-04-18T00:37:25.007Z,101475.68
2023-04-18T00:42:29.650Z,101472.96
2023-04-18T00:47:32.832Z,101475.14
2023-04-18T00:52:37.187Z,101477.54
2023-04-18T00:57:41.519Z,101477.81
2023-04-18T01:02:44.721Z,101475.68
2023-04-18T01:07:48.552Z,101480.25
2023-04-18T01:13:10.091Z,101478.89
2023-04-18T01:18:13.913Z,101481.97
2023-04-18T01:23:18.454Z,101479.54
2023-04-18T01:28:23.004Z,101478.47
2023-04-18T01:33:26.099Z,101483.61
2023-04-18T01:38:29.093Z,101483.16
2023-04-18T01:43:32.203Z,101482.30
2023-04-18T01:48:35.449Z,101489.73
2023-04-18T01:53:38.517Z,101491.55
2023-04-18T01:58:41.929Z,101493.48
2023-04-18T02:03:45.182Z,101491.25
2023-04-18T02:08:48.661Z,101488.63
2023-04-18T02:13:52.501Z,101489.07
2023-04-18T02:18:55.688Z,101489.33
2023-04-18T02:23:58.898Z,101489.21
2023-04-18T02:29:02.252Z,101486.12
2023-04-18T02:34:05.612Z,101482.41
2023-04-18T02:39:08.520Z,101485.59
2023-04-18T02:44:12.064Z,101481.45
2023-04-18T02:49:15.362Z,101480.93
2023-04-18T02:54:18.347Z,101478.94
2023-04-18T02:59:21.548Z,101477.09
2023-04-18T03:04:24.979Z,101478.98
2023-04-18T03:09:28.273Z,101479.50
2023-04-18T03:14:31.173Z,101480.02
2023-04-18T03:19:34.584Z,101480.71
2023-04-18T03:24:37.588Z,101482.76
2023-04-18T03:29:40.697Z,101481.30
2023-04-18T03:34:43.694Z,101482.69
2023-04-18T03:39:47.021Z,101484.36
2023-04-18T03:44:50.144Z,101482.88
2023-04-18T03:49:54.655Z,101481.30
2023-04-18T03:54:57.617Z,101484.37
2023-04-18T04:00:01.166Z,101489.05
2023-04-18T04:05:05.807Z,101487.59
2023-04-18T04:10:09.790Z,101492.23
2023-04-18T04:15:13.494Z,101498.30
2023-04-18T04:20:23.167Z,101502.44
2023-04-18T04:25:29.821Z,101504.19
2023-04-18T04:30:33.855Z,101507.90
2023-04-18T04:35:37.044Z,101505.29
2023-04-18T04:40:40.351Z,101507.94
2023-04-18T04:45:43.984Z,101519.44
2023-04-18T04:50:58.033Z,101522.61
2023-04-18T04:56:01.241Z,101523.62
2023-04-18T05:01:04.404Z,101527.27
2023-04-18T05:06:07.858Z,101532.50
2023-04-18T05:11:11.171Z,101532.71
2023-04-18T05:16:14.517Z,101531.86
2023-04-18T05:21:18.301Z,101536.13
2023-04-18T05:26:22.225Z,101542.45
2023-04-18T05:31:26.096Z,101543.20
2023-04-18T05:36:29.560Z,101545.85
2023-04-18T05:41:32.774Z,101546.20
2023-04-18T05:46:36.282Z,101544.85
2023-04-18T05:51:39.390Z,101544.08
2023-04-18T05:56:42.807Z,101540.92
2023-04-18T06:01:46.219Z,101543.14
2023-04-18T06:06:49.630Z,101541.57
2023-04-18T06:11:52.637Z,101542.25
2023-04-18T06:16:56.048Z,101538.42
2023-04-18T06:21:59.162Z,101536.74
2023-04-18T06:27:02.261Z,101544.11
2023-04-18T06:32:06.254Z,101544.02
2023-04-18T06:37:09.392Z,101547.30
2023-04-18T06:42:12.492Z,101549.80
2023-04-18T06:47:16.012Z,101550.31
2023-04-18T06:52:19.124Z,101558.27
2023-04-18T06:57:22.750Z,101558.67
2023-04-18T07:02:26.142Z,101560.29
2023-04-18T07:07:30.147Z,101563.38
2023-04-18T07:12:34.001Z,101560.02
2023-04-18T07:17:37.430Z,101557.32
2023-04-18T07:22:41.754Z,101552.55
2023-04-18T07:27:45.079Z,101558.47
2023-04-18T07:32:48.398Z,101561.59
2023-04-18T07:37:54.230Z,101560.55
2023-04-18T07:42:57.545Z,101553.10
2023-04-18T07:48:02.148Z,101553.34
2023-04-18T07:53:05.803Z,101556.95
2023-04-18T07:58:09.724Z,101555.12
2023-04-18T08:03:13.732Z,101555.01
2023-04-18T08:08:17.601Z,101549.13
2023-04-18T08:13:20.785Z,101546.11
2023-04-18T08:18:24.097Z,101549.33
2023-04-18T08:23:27.415Z,101548.24
2023-04-18T08:28:30.510Z,101550.52
2023-04-18T08:33:33.560Z,101547.25
2023-04-18T08:38:37.130Z,101543.89
2023-04-18T08:43:40.238Z,101538.30
2023-04-18T08:48:43.348Z,101541.07
2023-04-18T08:53:48.654Z,101542.50
2023-04-18T08:58:52.521Z,101532.30
2023-04-18T09:03:55.761Z,101525.34
2023-04-18T09:08:59.281Z,101523.84
2023-04-18T09:14:02.776Z,101520.28
2023-04-18T09:19:11.330Z,101514.94
2023-04-18T09:24:29.666Z,101513.11
2023-04-18T09:29:49.515Z,101515.86
2023-04-18T09:34:58.485Z,101513.86
2023-04-18T09:40:18.136Z,101506.88
2023-04-18T09:45:22.740Z,101505.16
2023-04-18T09:50:25.861Z,101499.91
2023-04-18T09:55:31.347Z,101495.67
2023-04-18T10:00:37.019Z,101499.56
2023-04-18T10:05:41.949Z,101496.68
2023-04-18T10:10:47.226Z,101488.65
2023-04-18T10:15:52.747Z,101473.56
2023-04-18T10:21:05.664Z,101474.96
2023-04-18T10:26:10.684Z,101458.01
2023-04-18T10:31:16.934Z,101460.63
2023-04-18T10:36:21.024Z,101454.98
2023-04-18T10:41:31.517Z,101452.09
2023-04-18T10:46:36.521Z,101451.03
2023-04-18T10:51:40.280Z,101443.19
2023-04-18T10:56:53.019Z,101443.18
2023-04-18T11:01:57.384Z,101437.39
2023-04-18T11:07:00.653Z,101436.13
2023-04-18T11:12:11.761Z,101439.17
2023-04-18T11:17:23.941Z,101433.86
2023-04-18T11:22:27.377Z,101425.98
2023-04-18T11:27:30.814Z,101420.73
2023-04-18T11:32:35.807Z,101420.80
2023-04-18T11:37:40.170Z,101410.33
2023-04-18T11:42:43.690Z,101403.00
2023-04-18T11:47:47.181Z,101391.38
2023-04-18T11:52:51.994Z,101391.86
2023-04-18T11:58:00.708Z,101396.09
2023-04-18T12:03:06.100Z,101397.91
2023-04-18T12:08:12.106Z,101394.69
2023-04-18T12:13:15.742Z,101398.34
2023-04-18T12:18:22.120Z,101389.33
2023-04-18T12:23:40.475Z,101389.47
2023-04-18T12:28:46.042Z,101379.52
2023-04-18T12:33:50.780Z,101380.46
2023-04-18T12:38:53.793Z,101376.19
2023-04-18T12:43:57.310Z,101368.88
2023-04-18T12:49:00.622Z,101373.88
2023-04-18T12:54:04.439Z,101367.30
2023-04-18T12:59:08.770Z,101358.07
2023-04-18T13:04:13.252Z,101345.55
2023-04-18T13:09:17.647Z,101341.75
2023-04-18T13:14:21.487Z,101347.77
2023-04-18T13:19:24.889Z,101343.48
2023-04-18T13:24:28.396Z,101345.54
2023-04-18T13:29:32.234Z,101341.67
2023-04-18T13:34:39.913Z,101339.66
2023-04-18T13:39:43.453Z,101340.96
2023-04-18T13:44:47.518Z,101340.70
2023-04-18T13:49:50.791Z,101341.20
2023-04-18T13:54:54.107Z,101340.31
2023-04-18T13:59:57.511Z,101340.09
2023-04-18T14:05:01.393Z,101336.73
2023-04-18T14:10:06.580Z,101338.48
2023-04-18T14:15:31.022Z,101329.71
2023-04-18T14:20:37.483Z,101326.91
2023-04-18T14:25:40.995Z,101321.94
2023-04-18T14:30:44.803Z,101324.77
2023-04-18T14:35:47.854Z,101326.50
2023-04-18T14:40:51.353Z,101333.20
2023-04-18T14:45:54.443Z,101332.02
2023-04-18T14:50:59.343Z,101334.96
2023-04-18T14:56:02.494Z,101335.02
2023-04-18T15:01:06.023Z,101335.67
2023-04-18T15:06:09.385Z,101330.86
2023-04-18T15:11:12.833Z,101330.53
2023-04-18T15:16:17.083Z,101326.52
2023-04-18T15:21:20.586Z,101329.79
2023-04-18T15:26:24.409Z,101332.51
2023-04-18T15:31:28.259Z,101330.02
2023-04-18T15:36:35.778Z,101330.56
2023-04-18T15:41:39.879Z,101329.08
2023-04-18T15:46:43.804Z,101325.90
2023-04-18T15:51:47.622Z,101324.92
2023-04-18T15:56:52.088Z,101325.20
2023-04-18T16:01:55.790Z,101329.21
2023-04-18T16:06:59.633Z,101324.14
2023-04-18T16:12:04.904Z,101323.86
2023-04-18T16:17:08.276Z,101322.36
2023-04-18T16:22:12.901Z,101318.35
2023-04-18T16:27:17.328Z,101315.64
2023-04-18T16:32:20.960Z,101312.80
2023-04-18T16:37:24.169Z,101307.79
2023-04-18T16:42:27.789Z,101308.92
2023-04-18T16:47:31.241Z,101302.95
2023-04-18T16:52:34.919Z,101305.50
2023-04-18T16:57:38.230Z,101307.30
2023-04-18T17:02:43.589Z,101307.81
2023-04-18T17:07:50.078Z,101302.38
2023-04-18T17:12:53.858Z,101302.15
2023-04-18T17:18:00.579Z,101302.75
2023-04-18T17:23:04.825Z,101305.60
2023-04-18T17:28:08.155Z,101300.01
2023-04-18T17:33:11.847Z,101311.94
2023-04-18T17:38:15.769Z,101318.27
2023-04-18T17:43:19.794Z,101317.39
2023-04-18T17:48:23.225Z,101320.11
2023-04-18T17:53:27.168Z,101321.70
2023-04-18T17:58:30.654Z,101325.00
2023-04-18T18:03:33.930Z,101331.48
2023-04-18T18:08:37.375Z,101335.98
2023-04-18T18:13:40.377Z,101336.86
2023-04-18T18:18:44.305Z,101329.09
2023-04-18T18:23:48.659Z,101335.58
2023-04-18T18:28:52.869Z,101335.48
2023-04-18T18:33:56.280Z,101332.58
2023-04-18T18:39:00.106Z,101332.30
2023-04-18T18:44:03.929Z,101322.84
2023-04-18T18:49:08.877Z,101320.12
2023-04-18T18:54:13.521Z,101317.96
2023-04-18T18:59:17.904Z,101314.82
2023-04-18T19:04:22.106Z,101312.76
2023-04-18T19:09:26.024Z,101309.19
2023-04-18T19:14:30.263Z,101308.06
2023-04-18T19:19:34.560Z,101303.67
2023-04-18T19:24:37.901Z,101300.80
2023-04-18T19:29:41.721Z,101296.39
2023-04-18T19:34:46.559Z,101290.67
2023-04-18T19:39:51.659Z,101285.23
2023-04-18T19:44:56.862Z,101287.61
2023-04-18T19:50:01.682Z,101281.56
2023-04-18T19:55:11.325Z,101272.88
2023-04-18T20:00:17.535Z,101270.93
2023-04-18T20:05:21.986Z,101273.99
2023-04-18T20:10:25.521Z,101266.25
2023-04-18T20:15:30.635Z,101263.16
2023-04-18T20:20:34.174Z,101257.75
2023-04-18T20:25:37.550Z,101250.80
2023-04-18T20:30:41.337Z,101249.73
2023-04-18T20:35:45.012Z,101242.94
2023-04-18T20:40:49.262Z,101236.41
2023-04-18T20:45:54.062Z,101238.39
2023-04-18T20:50:57.298Z,101240.16
2023-04-18T20:56:03.247Z,101234.41
2023-04-18T21:01:07.270Z,101228.17
2023-04-18T21:06:11.037Z,101224.58
2023-04-18T21:11:14.740Z,101218.43
2023-04-18T21:16:18.399Z,101213.70
2023-04-18T21:21:21.795Z,101208.94
2023-04-18T21:26:25.184Z,101209.67
2023-04-18T21:31:29.812Z,101206.91
2023-04-18T21:36:33.148Z,101209.14
2023-04-18T21:41:36.138Z,101209.55
2023-04-18T21:46:39.969Z,101210.42
2023-04-18T21:51:43.685Z,101202.33
2023-04-18T21:56:47.298Z,101201.72
2023-04-18T22:01:51.015Z,101200.06
2023-04-18T22:06:54.695Z,101195.66
2023-04-18T22:11:58.061Z,101190.44
2023-04-18T22:17:05.042Z,101181.64
2023-04-18T22:22:08.269Z,101179.32
2023-04-18T22:27:11.668Z,101176.08
2023-04-18T22:32:14.671Z,101173.09
2023-04-18T22:37:17.993Z,101159.48
2023-04-18T22:42:21.392Z,101156.89
2023-04-18T22:47:24.460Z,101162.62
2023-04-18T22:52:27.814Z,101155.95
2023-04-18T22:57:31.536Z,101151.85
2023-04-18T23:02:35.012Z,101143.99
2023-04-18T23:07:38.467Z,101135.89
2023-04-18T23:12:41.670Z,101130.23
2023-04-18T23:17:44.884Z,101125.34
2023-04-18T23:22:51.998Z,101116.43
2023-04-18T23:27:55.285Z,101110.77
2023-04-18T23:32:58.438Z,101102.16
2023-04-18T23:38:01.613Z,101095.43
2023-04-18T23:43:04.922Z,101089.00
2023-04-18T23:48:08.334Z,101082.86
2023-04-18T23:53:11.327Z,101074.04
2023-04-18T23:58:15.149Z,101065.38
